Time;durP1;ratioP1;P1;durP2;ratioP2;P2;SDS_P1;SDS_P2;PMS_P1;PMS_P2;Temp;Humidity;BMP_temperature;BMP_pressure;BME280_temperature;BME280_humidity;BME280_pressure;Samples;Min_cycle;Max_cycle;Signal;HPM_P1;HPM_P2
2021/09/13 00:01:41;;;;;;;9.50;8.60;;;18.00;1.00;;;;;;5047652;28;20201;-57
2021/09/13 00:04:06;;;;;;;11.23;9.03;;;18.10;1.00;;;;;;5048697;28;20544;-56
2021/09/13 00:06:32;;;;;;;10.50;9.43;;;18.00;1.00;;;;;;5049964;28;20255;-58
2021/09/13 00:09:00;;;;;;;10.03;9.03;;;18.00;1.00;;;;;;5046877;28;20601;-55
2021/09/13 00:11:26;;;;;;;9.43;8.37;;;18.00;1.00;;;;;;5049293;28;20273;-56
2021/09/13 00:13:52;;;;;;;9.60;8.70;;;18.00;1.00;;;;;;5052425;28;20506;-58
2021/09/13 00:16:17;;;;;;;10.10;9.20;;;17.90;1.00;;;;;;5049781;28;20247;-56
2021/09/13 00:18:43;;;;;;;10.63;9.30;;;17.90;1.00;;;;;;5048132;28;20209;-57
2021/09/13 00:21:09;;;;;;;10.50;9.40;;;17.90;1.00;;;;;;5049754;28;20567;-56
2021/09/13 00:23:34;;;;;;;10.10;9.20;;;17.80;1.00;;;;;;5046421;28;20276;-56
2021/09/13 00:26:00;;;;;;;14.40;9.20;;;17.80;1.00;;;;;;5047588;28;20201;-56
2021/09/13 00:28:26;;;;;;;11.70;10.00;;;17.80;1.00;;;;;;5048505;28;20319;-57
2021/09/13 00:30:51;;;;;;;13.33;10.90;;;17.80;1.00;;;;;;5047538;28;20263;-56
2021/09/13 00:33:17;;;;;;;11.10;10.10;;;17.80;1.00;;;;;;5052358;28;20188;-56
2021/09/13 00:35:45;;;;;;;11.27;10.17;;;17.90;1.00;;;;;;5049618;28;20183;-56
2021/09/13 00:38:11;;;;;;;11.33;10.20;;;17.80;1.00;;;;;;5049085;28;20464;-57
2021/09/13 00:40:36;;;;;;;11.83;10.63;;;17.70;1.00;;;;;;5048627;28;20444;-57
2021/09/13 00:43:03;;;;;;;11.43;10.23;;;17.70;10.60;;;;;;5046349;28;20211;-57
2021/09/13 00:45:29;;;;;;;10.90;9.80;;;17.60;12.80;;;;;;5046914;28;20194;-58
2021/09/13 00:47:55;;;;;;;11.47;10.27;;;17.60;17.30;;;;;;5048271;28;20898;-56
2021/09/13 00:50:20;;;;;;;12.57;11.13;;;17.60;24.80;;;;;;5047404;28;20201;-57
2021/09/13 00:52:52;;;;;;;12.00;10.70;;;17.70;25.20;;;;;;5049427;28;20185;-57
2021/09/13 00:55:21;;;;;;;15.70;11.00;;;17.60;30.60;;;;;;5049502;28;20225;-57
2021/09/13 00:57:49;;;;;;;11.53;10.30;;;17.60;29.00;;;;;;5046232;28;20458;-57
2021/09/13 01:00:18;;;;;;;12.43;10.97;;;17.60;29.10;;;;;;5045780;28;20917;-58
2021/09/13 01:02:43;;;;;;;11.50;10.20;;;17.60;29.50;;;;;;5061516;28;20450;-56
2021/09/13 01:05:10;;;;;;;10.43;9.50;;;17.60;29.30;;;;;;5048486;28;20943;-57
2021/09/13 01:07:36;;;;;;;11.47;10.27;;;17.60;30.00;;;;;;5047612;28;20209;-58
2021/09/13 01:10:02;;;;;;;11.63;10.53;;;17.20;31.60;;;;;;5049145;28;20466;-58
2021/09/13 01:12:28;;;;;;;11.43;10.33;;;17.60;31.40;;;;;;5049131;28;20183;-55
2021/09/13 01:14:54;;;;;;;11.00;9.90;;;17.60;31.30;;;;;;5050285;28;20512;-58
2021/09/13 01:17:22;;;;;;;11.13;10.03;;;17.60;32.90;;;;;;5051624;28;20204;-56
2021/09/13 01:19:48;;;;;;;11.03;9.93;;;17.50;34.40;;;;;;5052565;28;20244;-57
2021/09/13 01:22:18;;;;;;;10.67;9.50;;;17.50;35.70;;;;;;5052949;28;20479;-57
2021/09/13 01:24:43;;;;;;;10.97;9.97;;;17.60;41.50;;;;;;5051955;28;20221;-57
2021/09/13 01:27:10;;;;;;;11.10;10.17;;;17.40;40.80;;;;;;5049991;28;20461;-57
2021/09/13 01:29:37;;;;;;;10.87;9.77;;;17.40;42.40;;;;;;5051883;28;20195;-57
2021/09/13 01:32:03;;;;;;;11.90;10.70;;;17.40;42.20;;;;;;5050926;28;20995;-55
2021/09/13 01:34:29;;;;;;;11.20;10.20;;;17.50;46.80;;;;;;5052390;28;20935;-57
2021/09/13 01:36:54;;;;;;;12.40;11.00;;;17.40;45.70;;;;;;5034803;28;20497;-56
2021/09/13 01:39:20;;;;;;;11.07;10.07;;;17.40;48.60;;;;;;5051034;28;20713;-58
2021/09/13 01:41:47;;;;;;;12.00;10.83;;;17.40;47.40;;;;;;5052245;28;20409;-57
2021/09/13 01:44:14;;;;;;;10.93;10.03;;;17.30;50.70;;;;;;5051087;28;20423;-56
2021/09/13 01:46:41;;;;;;;12.47;10.43;;;17.30;52.80;;;;;;5050133;28;20474;-57
2021/09/13 01:49:08;;;;;;;11.63;10.60;;;17.30;48.10;;;;;;5050676;28;20423;-57
2021/09/13 01:51:34;;;;;;;11.60;10.50;;;17.30;50.70;;;;;;5053355;28;20422;-57
2021/09/13 01:54:00;;;;;;;11.20;10.10;;;17.20;51.00;;;;;;5052000;28;20429;-56
2021/09/13 01:56:27;;;;;;;10.67;9.67;;;17.20;55.70;;;;;;5050691;28;20475;-56
2021/09/13 01:58:52;;;;;;;11.50;10.50;;;17.20;56.40;;;;;;5051707;28;20456;-56
2021/09/13 02:01:19;;;;;;;12.10;10.83;;;17.20;56.60;;;;;;5051212;28;20452;-56
2021/09/13 02:03:45;;;;;;;10.93;9.93;;;17.20;52.90;;;;;;5050919;28;20247;-56
2021/09/13 02:06:11;;;;;;;10.67;9.77;;;17.20;55.20;;;;;;5050594;28;20447;-56
2021/09/13 02:08:37;;;;;;;10.83;9.37;;;17.10;55.20;;;;;;5050049;28;20182;-56
2021/09/13 02:11:04;;;;;;;10.33;9.33;;;17.10;57.60;;;;;;5051735;28;20219;-56
2021/09/13 02:13:30;;;;;;;9.90;9.00;;;17.00;54.80;;;;;;5046311;28;20697;-56
2021/09/13 02:15:56;;;;;;;11.27;10.10;;;17.00;56.80;;;;;;5049282;28;20454;-57
2021/09/13 02:18:21;;;;;;;10.20;9.30;;;17.00;56.90;;;;;;5051535;28;20498;-57
2021/09/13 02:20:47;;;;;;;10.27;9.20;;;16.90;63.10;;;;;;5051221;28;20188;-55
2021/09/13 02:23:13;;;;;;;10.30;9.40;;;16.90;75.10;;;;;;5050717;28;20192;-55
2021/09/13 02:25:38;;;;;;;10.30;9.27;;;17.00;74.70;;;;;;5051131;28;20733;-56
2021/09/13 02:28:04;;;;;;;9.13;8.33;;;16.90;72.00;;;;;;5047438;28;20554;-56
2021/09/13 02:30:29;;;;;;;11.30;10.07;;;17.00;71.70;;;;;;5050078;28;20266;-55
2021/09/13 02:32:55;;;;;;;9.93;8.93;;;17.00;64.50;;;;;;5051374;28;20197;-55
2021/09/13 02:35:20;;;;;;;10.83;9.67;;;16.90;63.90;;;;;;5049932;28;20193;-55
2021/09/13 02:37:46;;;;;;;10.20;8.83;;;16.90;66.70;;;;;;5049745;28;20323;-58
2021/09/13 02:40:11;;;;;;;9.90;9.00;;;16.90;64.40;;;;;;5051309;28;20248;-57
2021/09/13 02:42:37;;;;;;;13.07;8.80;;;16.90;66.30;;;;;;5051085;28;20279;-57
2021/09/13 02:45:04;;;;;;;9.87;8.77;;;16.80;62.60;;;;;;5049676;28;20210;-57
2021/09/13 02:47:30;;;;;;;10.30;9.27;;;16.80;65.20;;;;;;5046775;28;20538;-56
2021/09/13 02:49:56;;;;;;;9.27;8.30;;;16.80;67.30;;;;;;5050616;28;20426;-55
2021/09/13 02:52:21;;;;;;;10.10;8.63;;;16.80;68.40;;;;;;5048004;28;20235;-57
2021/09/13 02:54:47;;;;;;;9.10;8.30;;;16.80;62.50;;;;;;5050700;28;20773;-56
2021/09/13 02:57:12;;;;;;;8.40;7.70;;;16.80;68.20;;;;;;5051137;28;20180;-57
2021/09/13 02:59:38;;;;;;;10.23;9.20;;;16.70;69.50;;;;;;5048011;28;20212;-57
2021/09/13 03:02:04;;;;;;;8.90;8.10;;;19.00;72.20;;;;;;5050771;28;20214;-56
2021/09/13 03:04:29;;;;;;;9.50;8.70;;;16.70;73.10;;;;;;5049951;28;20681;-57
2021/09/13 03:06:55;;;;;;;9.00;8.20;;;16.70;70.90;;;;;;5048446;28;20188;-57
2021/09/13 03:09:20;;;;;;;9.27;8.40;;;16.70;73.00;;;;;;5049769;28;20243;-57
2021/09/13 03:11:46;;;;;;;8.90;8.10;;;16.60;74.70;;;;;;5048582;28;20714;-55
2021/09/13 03:14:11;;;;;;;9.30;8.40;;;16.60;75.60;;;;;;5050851;28;20220;-56
2021/09/13 03:16:37;;;;;;;9.03;8.23;;;16.60;77.40;;;;;;5050684;28;20273;-57
2021/09/13 03:19:02;;;;;;;9.03;8.20;;;16.60;78.20;;;;;;5046366;28;20241;-55
2021/09/13 03:21:28;;;;;;;12.27;10.97;;;16.60;74.80;;;;;;5049851;28;20189;-57
2021/09/13 03:23:54;;;;;;;15.07;12.00;;;16.60;75.70;;;;;;5050544;28;20189;-57
2021/09/13 03:26:20;;;;;;;17.50;15.70;;;16.60;76.90;;;;;;5048512;28;20674;-56
2021/09/13 03:28:45;;;;;;;19.10;17.30;;;16.70;71.40;;;;;;5049141;28;20591;-56
2021/09/13 03:31:11;;;;;;;25.07;22.67;;;16.60;75.60;;;;;;5048083;28;20463;-56
2021/09/13 03:33:36;;;;;;;27.77;24.93;;;16.70;74.80;;;;;;5049646;28;20220;-56
2021/09/13 03:36:03;;;;;;;30.77;27.47;;;16.60;70.80;;;;;;5049347;28;20612;-57
2021/09/13 03:38:28;;;;;;;31.30;27.90;;;16.50;72.50;;;;;;5049553;28;20420;-57
2021/09/13 03:40:54;;;;;;;27.77;24.80;;;16.50;78.00;;;;;;5048739;28;20533;-58
2021/09/13 03:43:20;;;;;;;29.50;26.40;;;16.50;77.20;;;;;;5049582;28;20281;-57
2021/09/13 03:45:45;;;;;;;32.33;27.10;;;16.50;79.10;;;;;;5049075;28;20454;-57
2021/09/13 03:48:11;;;;;;;30.97;27.67;;;16.50;80.00;;;;;;5047286;28;20542;-56
2021/09/13 03:50:36;;;;;;;29.93;26.83;;;16.50;75.60;;;;;;5049867;28;20215;-57
2021/09/13 03:53:03;;;;;;;32.50;29.10;;;16.50;75.50;;;;;;5049053;28;20647;-57
2021/09/13 03:55:29;;;;;;;31.43;28.20;;;16.40;79.50;;;;;;5047709;28;20296;-58
2021/09/13 03:57:54;;;;;;;34.13;30.43;;;16.40;79.80;;;;;;5047483;28;20443;-58
2021/09/13 04:00:20;;;;;;;33.13;29.63;;;16.40;78.30;;;;;;5049132;28;20273;-57
2021/09/13 04:02:47;;;;;;;33.37;29.77;;;16.40;81.20;;;;;;5043820;28;20195;-58
2021/09/13 04:05:17;;;;;;;33.70;29.30;;;16.40;82.70;;;;;;5050067;28;20203;-58
2021/09/13 04:10:36;;;;;;;31.63;28.23;;;16.30;87.90;;;;;;5049931;28;20455;-56
2021/09/13 04:13:01;;;;;;;29.43;26.30;;;16.20;90.90;;;;;;5048896;28;20425;-57
2021/09/13 04:15:27;;;;;;;30.40;27.17;;;16.30;96.00;;;;;;5049517;28;20422;-58
2021/09/13 04:17:52;;;;;;;30.60;25.30;;;16.30;96.00;;;;;;5049598;28;20186;-58
2021/09/13 04:20:18;;;;;;;30.10;26.90;;;16.20;98.90;;;;;;5048624;28;20209;-58
2021/09/13 04:22:43;;;;;;;24.07;21.53;;;16.20;99.90;;;;;;5049571;28;20532;-58
2021/09/13 04:25:09;;;;;;;19.97;17.97;;;16.20;99.90;;;;;;5048449;28;20221;-57
2021/09/13 04:27:34;;;;;;;15.50;14.00;;;16.30;99.90;;;;;;5049013;28;20638;-58
2021/09/13 04:30:00;;;;;;;15.40;13.90;;;16.30;98.60;;;;;;5049252;28;20201;-58
2021/09/13 04:32:26;;;;;;;14.70;13.30;;;16.30;99.70;;;;;;5049028;28;20182;-58
2021/09/13 04:34:51;;;;;;;15.80;14.20;;;16.30;97.40;;;;;;5048150;28;20184;-58
2021/09/13 04:37:17;;;;;;;17.03;15.03;;;16.30;98.80;;;;;;5049099;28;20305;-58
2021/09/13 04:39:43;;;;;;;17.70;15.90;;;16.30;99.90;;;;;;5049557;28;20254;-59
2021/09/13 04:42:08;;;;;;;24.67;21.83;;;16.20;99.30;;;;;;5049021;28;20235;-58
2021/09/13 04:44:34;;;;;;;19.70;17.27;;;16.30;98.40;;;;;;5063128;28;20229;-57
2021/09/13 04:46:59;;;;;;;20.50;18.50;;;16.40;95.70;;;;;;5053157;28;20593;-57
2021/09/13 04:49:25;;;;;;;21.40;19.10;;;16.40;96.20;;;;;;5052194;28;20181;-57
2021/09/13 04:51:52;;;;;;;18.00;16.20;;;16.50;94.30;;;;;;5053062;28;20223;-56
2021/09/13 04:54:17;;;;;;;20.27;17.93;;;16.50;90.80;;;;;;5051705;28;20181;-56
2021/09/13 04:56:43;;;;;;;20.00;17.90;;;16.60;90.00;;;;;;5052982;28;20868;-56
2021/09/13 04:59:10;;;;;;;17.90;16.10;;;16.60;78.00;;;;;;5053208;28;20195;-57
2021/09/13 05:01:36;;;;;;;18.50;16.70;;;16.60;74.80;;;;;;5052774;28;20196;-57
2021/09/13 05:04:02;;;;;;;16.50;13.97;;;16.70;70.10;;;;;;5053463;28;20431;-59
2021/09/13 05:06:28;;;;;;;15.60;14.00;;;16.70;58.70;;;;;;5053224;28;20496;-56
2021/09/13 05:08:54;;;;;;;14.53;13.13;;;16.80;60.70;;;;;;5051921;28;20428;-56
2021/09/13 05:11:20;;;;;;;13.70;12.20;;;16.80;59.70;;;;;;5052654;28;20426;-56
2021/09/13 05:13:45;;;;;;;12.67;11.40;;;16.80;59.00;;;;;;5052531;28;20199;-55
2021/09/13 05:16:11;;;;;;;9.90;9.00;;;16.90;52.40;;;;;;5052706;28;20193;-56
2021/09/13 05:18:36;;;;;;;9.47;8.57;;;16.90;47.30;;;;;;5051839;28;20723;-57
2021/09/13 05:21:03;;;;;;;8.87;7.90;;;16.90;48.20;;;;;;5052738;28;20205;-57
2021/09/13 05:23:28;;;;;;;8.80;7.43;;;17.10;42.60;;;;;;5052009;28;20570;-57
2021/09/13 05:25:54;;;;;;;8.13;7.43;;;17.10;37.10;;;;;;5052048;28;20406;-56
2021/09/13 05:28:20;;;;;;;9.57;8.70;;;17.10;29.40;;;;;;5051770;28;20375;-57
2021/09/13 05:30:46;;;;;;;8.20;7.40;;;17.10;24.00;;;;;;5051827;28;20929;-56
2021/09/13 05:33:11;;;;;;;8.77;7.87;;;17.20;20.40;;;;;;5052014;28;20191;-58
2021/09/13 05:35:37;;;;;;;7.87;7.17;;;17.20;23.40;;;;;;5051521;28;20182;-57
2021/09/13 05:38:03;;;;;;;7.10;6.40;;;17.20;23.90;;;;;;5051353;28;20614;-55
2021/09/13 05:40:28;;;;;;;7.40;6.60;;;17.30;20.00;;;;;;5052274;28;20216;-56
2021/09/13 05:42:54;;;;;;;7.43;6.53;;;17.30;19.30;;;;;;5051986;28;20178;-57
2021/09/13 05:45:20;;;;;;;7.87;7.17;;;17.40;15.90;;;;;;5052068;28;20190;-58
2021/09/13 05:47:45;;;;;;;8.10;7.40;;;17.40;15.90;;;;;;5051894;28;20197;-56
2021/09/13 05:50:11;;;;;;;9.30;8.37;;;17.40;14.90;;;;;;5051388;28;20200;-55
2021/09/13 05:52:37;;;;;;;7.30;6.60;;;17.40;13.00;;;;;;5051487;28;20584;-55
2021/09/13 05:55:03;;;;;;;6.77;6.17;;;17.50;10.70;;;;;;5051205;28;20190;-56
2021/09/13 05:57:29;;;;;;;8.37;7.53;;;17.60;6.80;;;;;;5051523;28;20648;-57
2021/09/13 05:59:55;;;;;;;9.20;7.50;;;17.60;1.00;;;;;;5049465;28;20467;-57
2021/09/13 06:02:20;;;;;;;7.33;6.57;;;17.70;1.00;;;;;;5051255;28;20447;-57
2021/09/13 06:04:46;;;;;;;6.90;6.30;;;17.60;1.00;;;;;;5050272;28;20281;-56
2021/09/13 06:07:12;;;;;;;7.17;6.23;;;17.60;1.00;;;;;;5051497;28;20178;-57
2021/09/13 06:09:38;;;;;;;7.10;6.50;;;17.60;1.00;;;;;;5061557;28;20853;-55
2021/09/13 06:12:04;;;;;;;7.13;6.53;;;17.60;1.00;;;;;;5050129;28;20643;-56
2021/09/13 06:14:30;;;;;;;6.80;6.20;;;17.50;1.00;;;;;;5049514;28;20445;-55
2021/09/13 06:16:55;;;;;;;8.40;7.30;;;17.60;1.00;;;;;;5051740;28;20572;-58
2021/09/13 06:19:21;;;;;;;6.83;6.20;;;17.60;1.00;;;;;;5049811;28;20197;-58
2021/09/13 06:21:46;;;;;;;6.60;6.10;;;17.60;1.00;;;;;;5051331;28;20239;-57
2021/09/13 06:24:12;;;;;;;7.90;7.10;;;17.70;1.00;;;;;;5051044;28;20527;-56
2021/09/13 06:26:38;;;;;;;7.73;6.90;;;17.70;1.00;;;;;;5051223;28;20200;-56
2021/09/13 06:29:05;;;;;;;8.43;7.50;;;17.80;1.00;;;;;;5050918;28;20647;-56
2021/09/13 06:31:31;;;;;;;9.57;6.60;;;17.80;1.00;;;;;;5051235;28;20422;-57
2021/09/13 06:33:56;;;;;;;7.43;6.83;;;18.00;1.00;;;;;;5050045;28;20422;-56
2021/09/13 06:36:23;;;;;;;7.83;6.97;;;18.20;1.00;;;;;;5050936;28;20680;-56
2021/09/13 06:38:48;;;;;;;7.00;6.40;;;18.30;1.00;;;;;;5050062;28;20225;-56
2021/09/13 06:41:14;;;;;;;7.10;6.40;;;18.50;1.00;;;;;;5050723;28;20985;-57
2021/09/13 06:43:43;;;;;;;7.60;6.87;;;18.70;1.00;;;;;;5051433;28;20202;-58
2021/09/13 06:46:13;;;;;;;7.10;6.50;;;18.80;1.00;;;;;;5047970;28;20187;-57
2021/09/13 06:48:41;;;;;;;7.77;6.50;;;18.90;1.00;;;;;;5051347;28;20499;-57
2021/09/13 06:51:06;;;;;;;6.63;6.07;;;19.20;1.00;;;;;;5050639;28;20457;-58
2021/09/13 06:53:33;;;;;;;7.80;7.10;;;19.40;1.00;;;;;;5050673;28;20719;-58
2021/09/13 06:55:59;;;;;;;7.83;7.13;;;19.60;1.00;;;;;;5049856;28;20191;-56
2021/09/13 06:58:24;;;;;;;7.90;6.83;;;19.60;1.00;;;;;;5050614;28;20914;-57
2021/09/13 07:00:53;;;;;;;7.60;7.00;;;19.60;1.00;;;;;;5050521;28;20485;-57
2021/09/13 07:03:19;;;;;;;9.60;7.27;;;19.60;1.00;;;;;;5051059;28;20179;-58
2021/09/13 07:05:45;;;;;;;7.57;6.90;;;19.60;1.00;;;;;;5049798;28;20413;-57
2021/09/13 07:08:11;;;;;;;8.60;7.53;;;19.60;1.00;;;;;;5049377;28;20422;-57
2021/09/13 07:10:36;;;;;;;8.40;7.47;;;19.70;1.00;;;;;;5049118;28;20433;-57
2021/09/13 07:13:02;;;;;;;9.00;7.50;;;19.80;1.00;;;;;;5050457;28;20195;-56
2021/09/13 07:15:28;;;;;;;9.67;8.07;;;19.70;1.00;;;;;;5050372;28;20189;-56
2021/09/13 07:17:53;;;;;;;8.23;6.93;;;19.90;1.00;;;;;;5049613;28;20245;-59
2021/09/13 07:20:19;;;;;;;8.27;7.47;;;19.90;1.00;;;;;;5050476;28;20649;-57
2021/09/13 07:22:44;;;;;;;10.30;8.00;;;19.90;1.00;;;;;;5049726;28;20188;-56
2021/09/13 07:25:11;;;;;;;7.23;6.60;;;20.00;1.00;;;;;;5048168;28;20246;-56
2021/09/13 07:27:37;;;;;;;7.90;7.17;;;20.00;1.00;;;;;;5049969;28;20187;-56
2021/09/13 07:30:03;;;;;;;8.57;7.67;;;20.10;1.00;;;;;;5049780;28;20439;-58
2021/09/13 07:32:29;;;;;;;8.10;7.30;;;20.30;1.00;;;;;;5049900;28;20510;-57
2021/09/13 07:34:55;;;;;;;9.13;7.93;;;20.30;1.00;;;;;;5049855;28;20595;-57
2021/09/13 07:37:21;;;;;;;9.30;7.47;;;20.20;1.00;;;;;;5048291;28;21039;-58
2021/09/13 07:39:46;;;;;;;10.77;7.63;;;20.60;1.00;;;;;;5049938;28;20303;-58
2021/09/13 07:42:13;;;;;;;8.17;7.40;;;20.80;1.00;;;;;;5048238;28;20216;-57
2021/09/13 07:44:38;;;;;;;9.37;8.47;;;21.00;1.00;;;;;;5049964;28;20442;-57
2021/09/13 07:47:04;;;;;;;8.17;7.37;;;21.30;1.00;;;;;;5049930;28;20206;-57
2021/09/13 07:49:30;;;;;;;8.20;7.07;;;21.60;1.00;;;;;;5049896;28;20207;-58
2021/09/13 07:51:55;;;;;;;7.83;7.13;;;22.10;1.00;;;;;;5049741;28;20223;-58
2021/09/13 07:54:21;;;;;;;8.37;7.30;;;22.10;1.00;;;;;;5049375;28;20176;-57
2021/09/13 07:56:46;;;;;;;8.90;7.63;;;22.00;1.00;;;;;;5049383;28;20207;-57
2021/09/13 07:59:12;;;;;;;11.00;9.87;;;21.90;1.00;;;;;;5049194;28;20235;-56
2021/09/13 08:01:38;;;;;;;10.80;8.23;;;24.60;1.00;;;;;;5049182;28;20176;-56
2021/09/13 08:04:03;;;;;;;9.83;8.77;;;22.00;1.00;;;;;;5049597;28;20226;-56
2021/09/13 08:06:29;;;;;;;13.23;9.63;;;22.40;1.00;;;;;;5048980;28;20534;-56
2021/09/13 08:08:55;;;;;;;10.47;9.47;;;22.50;1.00;;;;;;5049870;28;20283;-58
2021/09/13 08:11:20;;;;;;;11.50;10.40;;;22.40;1.00;;;;;;5049363;28;20249;-57
2021/09/13 08:13:46;;;;;;;12.33;10.70;;;22.40;1.00;;;;;;5049691;28;20207;-57
2021/09/13 08:16:12;;;;;;;11.67;9.70;;;22.30;1.00;;;;;;5049280;28;20189;-56
2021/09/13 08:18:38;;;;;;;11.33;10.10;;;22.20;1.00;;;;;;5049758;28;20211;-56
2021/09/13 08:21:05;;;;;;;16.87;12.60;;;22.30;1.00;;;;;;5049397;28;20489;-57
2021/09/13 08:23:34;;;;;;;11.23;10.20;;;22.20;1.00;;;;;;5050485;28;20794;-57
2021/09/13 08:26:03;;;;;;;10.83;9.23;;;22.10;1.00;;;;;;5053275;28;20440;-58
2021/09/13 08:28:29;;;;;;;10.30;9.20;;;22.90;1.00;;;;;;5052751;28;20452;-58
2021/09/13 08:30:54;;;;;;;11.33;10.13;;;22.20;1.00;;;;;;5053745;28;20446;-57
2021/09/13 08:33:20;;;;;;;12.80;11.27;;;22.30;1.00;;;;;;5054703;28;20677;-57
2021/09/13 08:35:47;;;;;;;10.60;9.60;;;22.60;1.00;;;;;;5053175;28;20181;-57
2021/09/13 08:38:12;;;;;;;13.00;11.10;;;22.70;1.00;;;;;;5052976;28;20677;-56
2021/09/13 08:40:38;;;;;;;11.70;10.60;;;22.90;1.00;;;;;;5053207;28;20466;-57
2021/09/13 08:43:04;;;;;;;10.60;9.50;;;23.00;1.00;;;;;;5052829;28;20190;-56
2021/09/13 08:45:44;;;;;;;9.13;8.23;;;23.10;1.00;;;;;;5053158;28;20188;-57
2021/09/13 08:53:20;;;;;;;11.30;10.20;;;23.30;1.00;;;;;;5073552;28;20476;-58
2021/09/13 08:55:46;;;;;;;10.60;9.10;;;23.40;1.00;;;;;;5053912;28;20425;-56
2021/09/13 08:58:19;;;;;;;10.10;9.20;;;23.10;1.00;;;;;;5053297;28;20457;-57
2021/09/13 09:00:45;;;;;;;9.87;8.83;;;23.20;1.00;;;;;;5051806;28;20212;-57
2021/09/13 09:03:11;;;;;;;13.00;8.57;;;23.60;1.00;;;;;;5057656;28;20481;-57
2021/09/13 09:05:40;;;;;;;10.00;9.00;;;23.50;1.00;;;;;;5071663;28;20180;-57
2021/09/13 09:08:06;;;;;;;12.07;9.60;;;23.60;1.00;;;;;;5072740;28;20469;-58
2021/09/13 09:10:32;;;;;;;10.17;8.40;;;23.40;1.00;;;;;;5073170;28;20529;-56
2021/09/13 09:13:13;;;;;;;9.37;8.50;;;23.40;1.00;;;;;;5073257;28;20525;-57
2021/09/13 09:15:57;;;;;;;10.63;9.60;;;23.40;1.00;;;;;;5073031;28;20184;-56
2021/09/13 09:18:24;;;;;;;10.17;9.23;;;23.60;1.00;;;;;;5073066;28;20408;-57
2021/09/13 09:20:50;;;;;;;13.90;12.50;;;23.70;1.00;;;;;;5071486;28;20460;-56
2021/09/13 09:23:16;;;;;;;13.47;12.10;;;23.80;1.00;;;;;;5073185;28;20454;-57
2021/09/13 09:25:41;;;;;;;12.17;10.80;;;23.90;1.00;;;;;;5072972;28;20939;-57
2021/09/13 09:28:11;;;;;;;11.70;10.20;;;23.90;1.00;;;;;;5072726;28;20270;-56
2021/09/13 09:30:45;;;;;;;11.70;10.50;;;24.00;1.00;;;;;;5055281;28;20181;-57
2021/09/13 09:33:13;;;;;;;12.53;11.40;;;24.30;1.00;;;;;;5052589;28;20449;-56
2021/09/13 09:35:50;;;;;;;10.93;9.90;;;24.20;1.00;;;;;;5051244;28;20442;-56
2021/09/13 09:38:32;;;;;;;10.77;9.67;;;24.10;1.00;;;;;;5071946;28;20529;-56
2021/09/13 09:41:19;;;;;;;10.77;9.70;;;24.60;1.00;;;;;;5072055;28;20528;-57
2021/09/13 09:43:58;;;;;;;11.37;9.60;;;24.70;1.00;;;;;;5072100;28;20521;-55
2021/09/13 09:46:33;;;;;;;11.40;10.30;;;24.90;1.00;;;;;;5069048;28;20512;-57
2021/09/13 09:49:04;;;;;;;10.40;9.40;;;24.60;1.00;;;;;;5052312;28;20413;-57
2021/09/13 09:51:32;;;;;;;10.60;9.30;;;24.30;1.00;;;;;;5052215;28;21103;-56
2021/09/13 09:54:17;;;;;;;9.93;9.00;;;24.10;1.00;;;;;;5052246;28;20517;-57
2021/09/13 09:56:46;;;;;;;10.43;8.90;;;24.00;1.00;;;;;;5051634;28;20479;-56
2021/09/13 09:59:12;;;;;;;10.73;9.67;;;24.20;1.00;;;;;;5049811;28;20471;-57
2021/09/13 10:01:46;;;;;;;9.67;8.77;;;24.30;1.00;;;;;;5052212;28;20534;-56
2021/09/13 10:04:18;;;;;;;9.30;8.40;;;24.30;1.00;;;;;;5051860;28;20430;-57
2021/09/13 10:06:52;;;;;;;9.10;8.30;;;24.30;1.00;;;;;;5050474;28;20418;-57
2021/09/13 10:09:18;;;;;;;10.97;9.97;;;24.10;1.00;;;;;;5052134;28;20744;-56
2021/09/13 10:11:45;;;;;;;11.40;10.30;;;24.40;1.00;;;;;;5051980;28;20426;-57
2021/09/13 10:14:16;;;;;;;10.40;9.30;;;24.70;1.00;;;;;;5051754;28;20466;-56
2021/09/13 10:16:44;;;;;;;10.60;9.60;;;24.70;1.00;;;;;;5051944;28;20439;-57
2021/09/13 10:19:11;;;;;;;8.40;7.60;;;24.40;1.00;;;;;;5051556;28;20521;-55
2021/09/13 10:21:36;;;;;;;9.60;8.13;;;24.00;1.00;;;;;;5051633;28;20423;-58
2021/09/13 10:24:05;;;;;;;12.13;7.57;;;23.90;1.00;;;;;;5049857;28;20762;-57
2021/09/13 10:26:30;;;;;;;10.07;8.63;;;24.00;1.00;;;;;;5051167;28;20184;-57
2021/09/13 10:29:02;;;;;;;10.43;8.40;;;24.30;1.00;;;;;;5051364;28;20458;-55
2021/09/13 10:31:43;;;;;;;9.70;8.80;;;24.50;1.00;;;;;;5051047;28;20208;-56
2021/09/13 10:34:20;;;;;;;10.03;9.03;;;24.40;1.00;;;;;;5051319;28;20500;-56
2021/09/13 10:37:11;;;;;;;9.67;8.10;;;24.30;1.00;;;;;;5050985;28;20471;-57
2021/09/13 10:39:55;;;;;;;9.70;8.80;;;24.10;1.00;;;;;;5049777;28;20469;-55
2021/09/13 10:42:39;;;;;;;9.37;8.57;;;24.30;1.00;;;;;;5050999;28;20401;-56
2021/09/13 10:45:37;;;;;;;8.83;7.93;;;24.40;1.00;;;;;;5051519;28;20449;-56
2021/09/13 10:48:17;;;;;;;9.10;8.20;;;24.30;1.00;;;;;;5039010;28;20540;-56
2021/09/13 10:50:55;;;;;;;8.80;8.10;;;24.30;1.00;;;;;;5049650;28;20443;-56
2021/09/13 10:53:21;;;;;;;8.57;7.60;;;24.50;1.00;;;;;;5051014;28;20964;-57
2021/09/13 10:55:53;;;;;;;9.13;8.33;;;24.40;1.00;;;;;;5050816;28;20464;-57
2021/09/13 10:58:40;;;;;;;13.20;7.70;;;24.20;1.00;;;;;;5032500;28;20214;-56
2021/09/13 11:01:09;;;;;;;9.37;8.27;;;24.10;1.00;;;;;;5051300;28;20452;-58
2021/09/13 11:03:37;;;;;;;7.83;6.93;;;24.80;1.00;;;;;;5049405;28;20475;-59
2021/09/13 11:06:06;;;;;;;11.43;8.10;;;24.40;1.00;;;;;;5049985;28;20478;-58
2021/09/13 11:08:48;;;;;;;8.70;7.90;;;24.50;1.00;;;;;;5050652;28;20431;-58
2021/09/13 11:11:29;;;;;;;8.67;7.87;;;24.90;1.00;;;;;;5050679;28;20443;-57
2021/09/13 11:13:58;;;;;;;9.00;7.93;;;24.90;1.00;;;;;;5050655;28;20409;-57
2021/09/13 11:16:25;;;;;;;7.60;6.97;;;25.00;1.00;;;;;;5050831;28;20709;-56
2021/09/13 11:18:51;;;;;;;7.60;6.90;;;25.00;1.00;;;;;;5050375;28;20789;-56
2021/09/13 11:21:28;;;;;;;8.20;7.40;;;25.00;1.00;;;;;;5051074;28;20500;-58
2021/09/13 11:23:59;;;;;;;9.13;8.33;;;25.20;1.00;;;;;;5050187;28;20471;-56
2021/09/13 11:26:38;;;;;;;9.33;7.03;;;25.30;1.00;;;;;;5050870;28;20434;-57
2021/09/13 11:29:23;;;;;;;9.07;8.20;;;25.00;1.00;;;;;;5050694;28;20784;-56
2021/09/13 11:32:03;;;;;;;7.80;7.07;;;27.00;1.00;;;;;;5050364;28;20425;-57
2021/09/13 11:34:38;;;;;;;9.40;8.60;;;24.30;1.00;;;;;;5050599;28;20469;-58
2021/09/13 11:37:09;;;;;;;7.90;7.17;;;24.70;1.00;;;;;;5048895;28;20523;-55
2021/09/13 11:39:42;;;;;;;10.33;8.23;;;24.60;1.00;;;;;;5050502;28;20481;-56
2021/09/13 11:42:20;;;;;;;9.50;8.27;;;24.50;1.00;;;;;;5049343;28;20812;-55
2021/09/13 11:44:51;;;;;;;12.13;9.40;;;24.70;1.00;;;;;;5049845;28;20413;-57
2021/09/13 11:47:18;;;;;;;10.00;8.90;;;24.70;1.00;;;;;;5049399;28;20728;-57
2021/09/13 11:49:47;;;;;;;8.20;7.43;;;24.70;1.00;;;;;;5050244;28;20420;-56
2021/09/13 11:52:27;;;;;;;8.70;7.90;;;24.90;1.00;;;;;;5049913;28;20488;-57
2021/09/13 11:55:00;;;;;;;9.90;8.83;;;25.10;1.00;;;;;;5049958;28;20955;-58
2021/09/13 11:57:29;;;;;;;9.57;8.70;;;25.00;1.00;;;;;;5049581;28;20414;-56
2021/09/13 11:59:57;;;;;;;9.93;9.10;;;25.00;1.00;;;;;;5049670;28;20473;-60
2021/09/13 12:02:23;;;;;;;9.27;8.43;;;25.40;1.00;;;;;;5050080;28;20405;-56
2021/09/13 12:04:50;;;;;;;10.30;9.40;;;25.70;1.00;;;;;;5049900;28;20756;-58
2021/09/13 12:48:27;;;;;;;9.03;7.80;;;25.60;1.00;;;;;;4922326;28;1970081;-58
2021/09/13 12:50:54;;;;;;;9.10;8.40;;;25.90;1.00;;;;;;5041719;28;20200;-57
2021/09/13 12:53:26;;;;;;;7.53;6.83;;;25.60;1.00;;;;;;5025213;28;20829;-57
2021/09/13 12:55:52;;;;;;;7.67;6.97;;;25.60;1.00;;;;;;5022362;28;20442;-58
2021/09/13 12:58:30;;;;;;;8.47;7.70;;;25.60;1.00;;;;;;5021049;28;20966;-58
2021/09/13 13:00:57;;;;;;;6.87;6.27;;;25.60;1.00;;;;;;5022926;28;20755;-58
2021/09/13 13:03:23;;;;;;;7.00;6.40;;;25.90;1.00;;;;;;5023661;28;20419;-59
2021/09/13 13:05:50;;;;;;;7.17;6.47;;;25.90;1.00;;;;;;5023976;28;20464;-59
2021/09/13 13:08:17;;;;;;;6.60;6.07;;;25.80;1.00;;;;;;5022444;28;20197;-59
2021/09/13 13:10:44;;;;;;;8.80;6.63;;;26.00;1.00;;;;;;5024636;28;20770;-57
2021/09/13 13:13:11;;;;;;;6.60;6.00;;;26.10;1.00;;;;;;5008599;28;20479;-57
2021/09/13 13:15:37;;;;;;;7.33;6.60;;;26.30;1.00;;;;;;5024686;28;20439;-58
2021/09/13 13:18:09;;;;;;;9.73;6.50;;;26.40;1.00;;;;;;5024567;28;20540;-58
2021/09/13 13:20:35;;;;;;;6.87;6.17;;;26.10;1.00;;;;;;5024434;28;20875;-59
2021/09/13 13:23:01;;;;;;;6.50;5.87;;;25.70;1.00;;;;;;5024937;28;20420;-56
2021/09/13 13:25:26;;;;;;;6.73;6.20;;;25.80;1.00;;;;;;5060979;28;20203;-57
2021/09/13 13:27:52;;;;;;;7.13;6.40;;;25.80;1.00;;;;;;5111055;28;20186;-57
2021/09/13 13:30:18;;;;;;;7.70;7.07;;;25.40;1.00;;;;;;5106245;28;20238;-57
2021/09/13 13:32:44;;;;;;;8.40;7.70;;;25.00;1.00;;;;;;5111382;28;20195;-58
2021/09/13 13:35:10;;;;;;;7.83;7.13;;;24.70;1.00;;;;;;5104749;28;20178;-56